createdAt,value
2022-08-12T00:00:37.159Z,3.80
2022-08-12T00:02:03.576Z,3.20
2022-08-12T00:02:38.224Z,4.00
2022-08-12T00:03:37.174Z,5.40
2022-08-12T00:04:37.063Z,3.40
2022-08-12T00:05:37.056Z,3.30
2022-08-12T00:06:37.066Z,5.50
2022-08-12T00:07:37.026Z,3.40
2022-08-12T00:08:37.230Z,5.20
2022-08-12T00:09:37.004Z,3.20
2022-08-12T00:10:36.999Z,4.30
2022-08-12T00:11:36.983Z,3.90
2022-08-12T00:12:36.976Z,3.80
2022-08-12T00:13:36.960Z,3.60
2022-08-12T00:14:37.067Z,3.90
2022-08-12T00:15:36.935Z,3.40
2022-08-12T00:16:36.933Z,3.30
2022-08-12T00:17:37.060Z,3.80
2022-08-12T00:18:36.927Z,4.60
2022-08-12T00:19:36.921Z,4.40
2022-08-12T00:20:36.884Z,3.30
2022-08-12T00:21:36.871Z,5.00
2022-08-12T00:22:36.860Z,4.20
2022-08-12T00:23:36.851Z,4.80
2022-08-12T00:24:36.871Z,5.30
2022-08-12T00:26:00.521Z,4.10
2022-08-12T00:26:37.818Z,4.80
2022-08-12T00:27:43.479Z,4.40
2022-08-12T00:28:37.794Z,5.00
2022-08-12T00:29:36.804Z,3.60
2022-08-12T00:30:36.775Z,3.40
2022-08-12T00:31:36.781Z,3.70
2022-08-12T00:32:36.856Z,4.20
2022-08-12T00:33:51.731Z,4.30
2022-08-12T00:34:37.724Z,4.50
2022-08-12T00:35:37.020Z,4.40
2022-08-12T00:36:36.727Z,3.50
2022-08-12T00:37:36.695Z,4.10
2022-08-12T00:38:36.686Z,3.40
2022-08-12T00:39:36.843Z,3.90
2022-08-12T00:40:36.661Z,4.10
2022-08-12T00:41:36.651Z,3.50
2022-08-12T00:42:36.669Z,3.80
2022-08-12T00:43:36.632Z,3.30
2022-08-12T00:44:36.639Z,4.10
2022-08-12T00:45:36.607Z,3.40
2022-08-12T00:46:36.639Z,3.80
2022-08-12T00:47:36.602Z,4.80
2022-08-12T00:48:36.596Z,3.60
2022-08-12T00:49:36.559Z,4.70
2022-08-12T00:50:36.555Z,4.10
2022-08-12T00:51:36.538Z,3.50
2022-08-12T00:52:36.550Z,4.40
2022-08-12T00:53:36.552Z,4.10
2022-08-12T00:54:36.512Z,4.60
2022-08-12T00:55:36.495Z,3.30
2022-08-12T00:56:36.485Z,3.30
2022-08-12T00:57:36.627Z,5.20
2022-08-12T00:58:36.496Z,4.90
2022-08-12T00:59:36.469Z,4.10
2022-08-12T01:00:36.439Z,4.10
2022-08-12T01:02:01.050Z,6.00
2022-08-12T01:02:37.417Z,4.00
2022-08-12T01:03:36.406Z,5.00
2022-08-12T01:04:36.417Z,4.50
2022-08-12T01:05:36.383Z,3.90
2022-08-12T01:06:36.375Z,3.50
2022-08-12T01:07:36.362Z,3.90
2022-08-12T01:08:36.350Z,3.80
2022-08-12T01:09:36.360Z,4.70
2022-08-12T01:10:36.329Z,3.90
2022-08-12T01:11:36.317Z,4.00
2022-08-12T01:12:36.308Z,3.60
2022-08-12T01:13:36.301Z,3.70
2022-08-12T01:14:36.308Z,3.60
2022-08-12T01:15:36.272Z,4.50
2022-08-12T01:16:36.260Z,3.90
2022-08-12T01:17:36.250Z,4.10
2022-08-12T01:18:36.262Z,4.40
2022-08-12T01:19:36.234Z,3.40
2022-08-12T01:20:36.218Z,3.80
2022-08-12T01:21:36.226Z,4.10
2022-08-12T01:22:36.198Z,4.20
2022-08-12T01:23:36.196Z,4.70
2022-08-12T01:24:36.174Z,5.70
2022-08-12T01:25:39.739Z,4.20
2022-08-12T01:26:37.169Z,4.00
2022-08-12T01:27:36.144Z,3.50
2022-08-12T01:28:36.132Z,3.90
2022-08-12T01:29:36.120Z,4.30
2022-08-12T01:30:36.107Z,4.00
2022-08-12T01:31:36.114Z,4.00
2022-08-12T01:32:36.084Z,4.00
2022-08-12T01:33:36.073Z,3.90
2022-08-12T01:34:37.608Z,4.30
2022-08-12T01:35:36.070Z,3.50
2022-08-12T01:36:36.047Z,4.20
2022-08-12T01:37:36.031Z,5.20
2022-08-12T01:38:36.025Z,4.40
2022-08-12T01:39:36.107Z,3.70
2022-08-12T01:40:38.644Z,5.10
2022-08-12T01:41:35.984Z,4.50
2022-08-12T01:42:35.997Z,4.70
2022-08-12T01:43:35.961Z,4.50
2022-08-12T01:44:35.949Z,8.40
2022-08-12T01:45:42.946Z,11.20
2022-08-12T01:46:36.928Z,22.60
2022-08-12T01:47:35.942Z,13.50
2022-08-12T01:48:35.906Z,8.40
2022-08-12T01:49:35.895Z,9.40
2022-08-12T01:50:35.887Z,5.40
2022-08-12T01:52:07.475Z,5.40
2022-08-12T01:52:36.998Z,5.00
2022-08-12T01:53:50.173Z,4.30
2022-08-12T01:54:36.843Z,4.00
2022-08-12T01:55:35.826Z,5.10
2022-08-12T01:56:35.819Z,4.30
2022-08-12T01:57:58.084Z,4.50
2022-08-12T01:58:36.840Z,4.40
2022-08-12T01:59:35.782Z,3.80
2022-08-12T02:00:44.976Z,4.00
2022-08-12T02:01:36.821Z,4.30
2022-08-12T02:02:35.858Z,4.80
2022-08-12T02:03:35.758Z,4.10
2022-08-12T02:04:35.729Z,4.00
2022-08-12T02:05:35.720Z,4.60
2022-08-12T02:06:35.729Z,5.70
2022-08-12T02:07:35.694Z,4.90
2022-08-12T02:08:35.721Z,4.70
2022-08-12T02:09:35.671Z,4.20
2022-08-12T02:10:50.802Z,4.50
2022-08-12T02:11:36.660Z,4.30
2022-08-12T02:12:35.689Z,4.00
2022-08-12T02:13:48.626Z,5.00
2022-08-12T02:14:36.635Z,5.10
2022-08-12T02:15:35.606Z,3.80
2022-08-12T02:16:35.594Z,4.00
2022-08-12T02:17:55.744Z,5.10
2022-08-12T02:18:36.573Z,4.40
2022-08-12T02:19:35.582Z,4.90
2022-08-12T02:20:51.996Z,5.20
2022-08-12T02:21:36.534Z,6.00
2022-08-12T02:22:35.566Z,4.50
2022-08-12T02:23:35.532Z,5.70
2022-08-12T02:24:35.528Z,4.80
2022-08-12T02:25:35.490Z,5.50
2022-08-12T02:26:35.485Z,5.00
2022-08-12T02:27:35.472Z,4.20
2022-08-12T02:28:35.489Z,4.60
2022-08-12T02:29:35.447Z,4.50
2022-08-12T02:30:42.374Z,4.30
2022-08-12T02:31:36.420Z,4.60
2022-08-12T02:32:35.507Z,4.70
2022-08-12T02:33:35.422Z,3.80
2022-08-12T02:34:35.393Z,5.30
2022-08-12T02:35:35.406Z,5.40
2022-08-12T02:36:35.985Z,4.30
2022-08-12T02:37:35.358Z,4.40
2022-08-12T02:38:35.350Z,4.40
2022-08-12T02:39:35.361Z,5.00
2022-08-12T02:40:35.348Z,4.90
2022-08-12T02:41:35.312Z,5.50
2022-08-12T02:42:35.351Z,4.70
2022-08-12T02:43:35.290Z,4.40
2022-08-12T02:44:35.281Z,4.50
2022-08-12T02:45:35.289Z,4.80
2022-08-12T02:46:35.280Z,3.90
2022-08-12T02:48:00.711Z,4.00
2022-08-12T02:48:36.232Z,4.30
2022-08-12T02:49:35.220Z,4.50
2022-08-12T02:50:35.214Z,5.60
2022-08-12T02:51:35.201Z,5.00
2022-08-12T02:52:35.223Z,4.10
2022-08-12T02:53:35.201Z,5.80
2022-08-12T02:54:35.169Z,4.70
2022-08-12T02:55:35.362Z,4.20
2022-08-12T02:56:35.151Z,4.90
2022-08-12T02:57:35.134Z,4.70
2022-08-12T02:58:35.286Z,3.90
2022-08-12T02:59:35.113Z,5.00
2022-08-12T03:00:35.109Z,4.50
2022-08-12T03:01:35.333Z,4.90
2022-08-12T03:02:35.136Z,4.50
2022-08-12T03:03:35.066Z,4.70
2022-08-12T03:04:36.375Z,4.20
2022-08-12T03:05:38.608Z,4.30
2022-08-12T03:06:36.034Z,6.60
2022-08-12T03:07:59.590Z,4.20
2022-08-12T03:08:36.010Z,5.20
2022-08-12T03:10:03.701Z,5.80
2022-08-12T03:10:37.749Z,4.60
2022-08-12T03:11:37.737Z,5.60
2022-08-12T03:12:36.075Z,4.60
2022-08-12T03:13:35.960Z,6.20
2022-08-12T03:14:34.967Z,4.60
2022-08-12T03:15:34.954Z,4.90
2022-08-12T03:16:36.930Z,4.60
2022-08-12T03:17:34.911Z,4.60
2022-08-12T03:18:34.922Z,4.00
2022-08-12T03:19:34.888Z,5.40
2022-08-12T03:20:34.878Z,4.40
2022-08-12T03:21:57.855Z,5.60
2022-08-12T03:22:35.874Z,4.60
2022-08-12T03:23:34.864Z,5.80
2022-08-12T03:24:34.832Z,4.60
2022-08-12T03:25:34.820Z,4.40
2022-08-12T03:26:34.811Z,5.90
2022-08-12T03:27:34.824Z,4.70
2022-08-12T03:28:34.787Z,4.90
2022-08-12T03:29:50.075Z,5.20
2022-08-12T03:30:35.768Z,5.00
2022-08-12T03:31:34.753Z,5.00
2022-08-12T03:32:35.761Z,4.60
2022-08-12T03:33:34.730Z,4.60
2022-08-12T03:34:34.721Z,4.80
2022-08-12T03:35:41.477Z,4.90
2022-08-12T03:36:35.938Z,5.60
2022-08-12T03:37:34.706Z,5.30
2022-08-12T03:38:34.676Z,4.20
2022-08-12T03:39:36.196Z,4.50
2022-08-12T03:40:34.655Z,4.70
2022-08-12T03:41:34.674Z,5.60
2022-08-12T03:42:34.633Z,4.60
2022-08-12T03:43:34.619Z,6.00
2022-08-12T03:44:34.609Z,4.70
2022-08-12T03:45:34.597Z,4.80
2022-08-12T03:46:35.609Z,4.20
2022-08-12T03:47:34.575Z,4.90
2022-08-12T03:48:34.563Z,4.80
2022-08-12T03:49:34.556Z,5.70
2022-08-12T03:50:34.541Z,6.30
2022-08-12T03:51:34.531Z,5.60
2022-08-12T03:52:34.596Z,4.70
2022-08-12T03:53:34.532Z,4.70
2022-08-12T03:54:35.786Z,4.50
2022-08-12T03:55:34.483Z,4.40
2022-08-12T03:56:34.473Z,5.00
2022-08-12T03:57:34.486Z,5.80
2022-08-12T03:58:34.452Z,4.40
2022-08-12T03:59:34.444Z,5.90
2022-08-12T04:00:34.563Z,6.20
2022-08-12T04:01:40.850Z,4.60
2022-08-12T04:02:35.510Z,5.90
2022-08-12T04:03:34.397Z,4.60
2022-08-12T04:04:34.384Z,6.00
2022-08-12T04:05:55.377Z,4.60
2022-08-12T04:06:36.024Z,4.80
2022-08-12T04:07:34.358Z,4.70
2022-08-12T04:08:34.364Z,4.80
2022-08-12T04:09:34.329Z,4.90
2022-08-12T04:10:34.316Z,4.60
2022-08-12T04:11:34.332Z,4.90
2022-08-12T04:12:35.540Z,4.30
2022-08-12T04:13:34.307Z,4.40
2022-08-12T04:14:34.271Z,4.70
2022-08-12T04:15:34.259Z,4.20
2022-08-12T04:16:34.245Z,5.10
2022-08-12T04:17:34.262Z,4.80
2022-08-12T04:18:34.222Z,4.70
2022-08-12T04:19:34.217Z,4.40
2022-08-12T04:20:34.202Z,4.40
2022-08-12T04:21:34.193Z,5.20
2022-08-12T04:22:34.177Z,5.60
2022-08-12T04:23:34.189Z,4.80
2022-08-12T04:24:34.157Z,4.40
2022-08-12T04:25:34.167Z,4.20
2022-08-12T04:26:34.135Z,4.30
2022-08-12T04:27:34.127Z,4.80
2022-08-12T04:28:34.114Z,4.10
2022-08-12T04:30:21.225Z,5.10
2022-08-12T04:30:35.086Z,4.70
2022-08-12T04:31:34.100Z,4.50
2022-08-12T04:32:34.068Z,4.40
2022-08-12T04:33:34.058Z,5.20
2022-08-12T04:34:34.045Z,5.30
2022-08-12T04:35:34.064Z,4.30
2022-08-12T04:36:34.023Z,4.20
2022-08-12T04:37:58.776Z,4.50
2022-08-12T04:38:35.018Z,4.70
2022-08-12T04:39:34.067Z,4.80
2022-08-12T04:40:34.005Z,5.00
2022-08-12T04:41:33.968Z,4.30
2022-08-12T04:42:33.957Z,4.90
2022-08-12T04:43:55.342Z,8.30
2022-08-12T04:44:34.932Z,5.00
2022-08-12T04:45:33.950Z,6.00
2022-08-12T04:46:34.758Z,5.20
2022-08-12T04:47:33.900Z,3.90
2022-08-12T04:48:33.889Z,4.60
2022-08-12T04:49:33.878Z,4.70
2022-08-12T04:50:36.927Z,5.20
2022-08-12T04:51:33.875Z,5.20
2022-08-12T04:52:35.035Z,4.50
2022-08-12T04:53:33.833Z,6.90
2022-08-12T04:54:33.821Z,4.80
2022-08-12T04:55:33.830Z,4.80
2022-08-12T04:56:35.425Z,5.10
2022-08-12T04:57:33.788Z,5.70
2022-08-12T04:58:33.784Z,5.00
2022-08-12T04:59:43.686Z,4.70
2022-08-12T05:00:34.755Z,5.20
2022-08-12T05:01:33.747Z,6.60
2022-08-12T05:02:33.860Z,5.70
2022-08-12T05:03:46.097Z,4.60
2022-08-12T05:04:34.708Z,5.90
2022-08-12T05:05:36.083Z,5.00
2022-08-12T05:06:33.708Z,5.30
2022-08-12T05:07:33.678Z,4.40
2022-08-12T05:08:33.665Z,4.80
2022-08-12T05:10:00.795Z,4.40
2022-08-12T05:10:36.073Z,5.30
2022-08-12T05:11:33.633Z,5.50
2022-08-12T05:12:33.641Z,4.90
2022-08-12T05:13:33.609Z,4.30
2022-08-12T05:14:37.524Z,5.50
2022-08-12T05:15:33.589Z,4.90
2022-08-12T05:16:34.303Z,4.80
2022-08-12T05:17:33.585Z,4.90
2022-08-12T05:18:33.559Z,4.90
2022-08-12T05:19:33.575Z,4.40
2022-08-12T05:20:33.533Z,4.10
2022-08-12T05:21:33.522Z,4.70
2022-08-12T05:22:37.094Z,4.50
2022-08-12T05:23:33.499Z,4.30
2022-08-12T05:24:33.506Z,4.60
2022-08-12T05:25:33.476Z,4.50
2022-08-12T05:26:33.464Z,4.50
2022-08-12T05:27:33.477Z,4.40
2022-08-12T05:28:33.440Z,4.20
2022-08-12T05:30:05.689Z,4.60
2022-08-12T05:30:34.421Z,4.30
2022-08-12T05:31:40.569Z,6.70
2022-08-12T05:32:34.427Z,4.80
2022-08-12T05:33:33.387Z,5.80
2022-08-12T05:34:33.376Z,4.50
2022-08-12T05:35:33.364Z,4.50
2022-08-12T05:36:33.352Z,5.00
2022-08-12T05:37:33.343Z,5.60
2022-08-12T05:38:33.353Z,5.30
2022-08-12T05:39:33.360Z,4.20
2022-08-12T05:40:33.308Z,6.20
2022-08-12T05:41:33.299Z,4.70
2022-08-12T05:42:34.451Z,5.10
2022-08-12T05:43:33.276Z,5.10
2022-08-12T05:44:33.283Z,4.20
2022-08-12T05:45:33.256Z,4.60
2022-08-12T05:46:33.251Z,6.10
2022-08-12T05:47:52.302Z,5.90
2022-08-12T05:48:34.216Z,5.00
2022-08-12T05:49:33.229Z,5.20
2022-08-12T05:50:33.197Z,5.60
2022-08-12T05:51:40.895Z,7.40
2022-08-12T05:52:34.173Z,6.20
2022-08-12T05:53:33.166Z,5.20
2022-08-12T05:54:56.286Z,6.20
2022-08-12T05:55:34.146Z,7.20
2022-08-12T05:56:33.152Z,6.10
2022-08-12T05:57:33.123Z,5.80
2022-08-12T05:58:33.108Z,6.40
2022-08-12T05:59:33.118Z,8.40
2022-08-12T06:00:33.088Z,6.20
2022-08-12T06:02:12.666Z,7.50
2022-08-12T06:02:34.063Z,6.20
2022-08-12T06:03:33.102Z,8.60
2022-08-12T06:04:33.069Z,7.00
2022-08-12T06:05:33.032Z,9.40
2022-08-12T06:06:36.560Z,7.50
2022-08-12T06:07:59.447Z,7.10
2022-08-12T06:08:33.996Z,7.20
2022-08-12T06:09:33.063Z,7.10
2022-08-12T06:10:33.271Z,9.50
2022-08-12T06:11:32.986Z,8.50
2022-08-12T06:12:32.952Z,9.80
2022-08-12T06:13:53.196Z,8.40
2022-08-12T06:14:33.930Z,10.80
2022-08-12T06:15:32.932Z,9.30
2022-08-12T06:16:32.911Z,7.30
2022-08-12T06:17:32.920Z,7.60
2022-08-12T06:18:32.889Z,8.80
2022-08-12T06:20:27.290Z,8.50
2022-08-12T06:20:34.399Z,10.50
2022-08-12T06:21:32.855Z,8.00
2022-08-12T06:22:32.869Z,9.00
2022-08-12T06:23:32.839Z,9.20
2022-08-12T06:24:32.821Z,9.30
2022-08-12T06:25:32.813Z,7.70
2022-08-12T06:26:32.798Z,7.80
2022-08-12T06:27:32.791Z,9.70
2022-08-12T06:28:32.799Z,8.50
2022-08-12T06:30:07.350Z,9.40
2022-08-12T06:30:37.889Z,9.80
2022-08-12T06:31:33.747Z,7.10
2022-08-12T06:32:32.733Z,8.70
2022-08-12T06:33:55.427Z,7.50
2022-08-12T06:35:25.183Z,9.30
2022-08-12T06:35:48.100Z,10.80
2022-08-12T06:36:33.891Z,10.40
2022-08-12T06:37:32.682Z,8.80
2022-08-12T06:38:32.665Z,8.20
2022-08-12T06:39:32.715Z,7.00
2022-08-12T06:40:32.664Z,7.70
2022-08-12T06:41:32.635Z,8.10
2022-08-12T06:42:33.545Z,8.20
2022-08-12T06:44:06.119Z,7.60
2022-08-12T06:44:33.599Z,8.30
2022-08-12T06:45:45.700Z,8.50
2022-08-12T06:46:33.597Z,9.20
2022-08-12T06:47:32.573Z,6.70
2022-08-12T06:48:32.556Z,6.70
2022-08-12T06:49:32.547Z,9.60
2022-08-12T06:50:34.748Z,7.20
2022-08-12T06:51:32.786Z,8.30
2022-08-12T06:52:32.514Z,9.70
2022-08-12T06:53:32.502Z,8.80
2022-08-12T06:54:32.536Z,7.60
2022-08-12T06:55:32.483Z,9.60
2022-08-12T06:57:02.416Z,8.40
2022-08-12T06:58:07.525Z,8.90
2022-08-12T06:58:33.443Z,6.80
2022-08-12T06:59:32.561Z,7.10
2022-08-12T07:00:33.023Z,10.90
2022-08-12T07:01:32.476Z,7.50
2022-08-12T07:02:36.736Z,9.20
2022-08-12T07:03:32.390Z,9.60
2022-08-12T07:04:37.314Z,5.90
2022-08-12T07:05:33.389Z,8.80
2022-08-12T07:06:32.354Z,8.00
2022-08-12T07:07:32.347Z,8.00
2022-08-12T07:08:32.333Z,10.80
2022-08-12T07:10:01.370Z,9.00
2022-08-12T07:10:33.330Z,6.70
2022-08-12T07:11:32.300Z,9.60
2022-08-12T07:12:32.554Z,7.40
2022-08-12T07:13:32.310Z,9.10
2022-08-12T07:14:32.291Z,8.00
2022-08-12T07:15:32.261Z,11.20
2022-08-12T07:16:32.272Z,7.10
2022-08-12T07:17:32.236Z,10.20
2022-08-12T07:18:32.225Z,9.80
2022-08-12T07:19:40.390Z,9.90
2022-08-12T07:20:51.732Z,11.20
2022-08-12T07:21:59.885Z,11.20
2022-08-12T07:22:33.191Z,9.50
2022-08-12T07:23:32.177Z,9.70
2022-08-12T07:24:32.183Z,9.80
2022-08-12T07:25:37.183Z,7.70
2022-08-12T07:26:33.135Z,10.00
2022-08-12T07:27:32.149Z,9.10
2022-08-12T07:28:32.137Z,10.20
2022-08-12T07:30:02.510Z,10.70
2022-08-12T07:30:33.092Z,10.70
2022-08-12T07:31:32.085Z,7.10
2022-08-12T07:32:32.079Z,8.00
2022-08-12T07:33:32.358Z,9.20
2022-08-12T07:34:32.048Z,9.20
2022-08-12T07:35:32.038Z,6.30
2022-08-12T07:36:32.054Z,7.80
2022-08-12T07:37:32.017Z,7.70
2022-08-12T07:38:32.011Z,7.20
2022-08-12T07:39:32.046Z,7.90
2022-08-12T07:40:31.983Z,5.80
2022-08-12T07:41:31.996Z,5.80
2022-08-12T07:42:31.962Z,6.30
2022-08-12T07:43:31.954Z,6.60
2022-08-12T07:44:31.945Z,5.50
2022-08-12T07:45:31.950Z,7.90
2022-08-12T07:46:31.917Z,7.00
2022-08-12T07:47:31.912Z,6.80
2022-08-12T07:48:31.897Z,5.40
2022-08-12T07:49:31.889Z,6.30
2022-08-12T07:50:32.894Z,4.10
2022-08-12T07:51:31.865Z,5.70
2022-08-12T07:52:32.004Z,5.10
2022-08-12T07:53:31.851Z,4.50
2022-08-12T07:54:31.852Z,6.00
2022-08-12T07:55:31.825Z,5.70
2022-08-12T07:56:31.818Z,5.60
2022-08-12T07:57:31.820Z,9.20
2022-08-12T07:58:31.788Z,4.30
2022-08-12T07:59:31.778Z,3.50
2022-08-12T08:00:31.765Z,5.30
2022-08-12T08:01:31.864Z,4.70
2022-08-12T08:02:31.755Z,3.50
2022-08-12T08:03:31.733Z,3.70
2022-08-12T08:04:31.748Z,5.90
2022-08-12T08:05:31.743Z,3.40
2022-08-12T08:06:31.706Z,6.60
2022-08-12T08:07:31.731Z,5.80
2022-08-12T08:08:31.688Z,3.40
2022-08-12T08:09:31.669Z,4.30
2022-08-12T08:10:31.661Z,5.20
2022-08-12T08:11:31.648Z,3.50
2022-08-12T08:12:31.673Z,4.00
2022-08-12T08:13:31.648Z,4.40
2022-08-12T08:14:31.615Z,6.20
2022-08-12T08:16:00.594Z,8.10
2022-08-12T08:16:32.597Z,5.60
2022-08-12T08:17:31.602Z,6.80
2022-08-12T08:18:31.574Z,9.40
2022-08-12T08:19:31.562Z,5.80
2022-08-12T08:20:31.558Z,7.10
2022-08-12T08:21:31.543Z,4.70
2022-08-12T08:22:41.819Z,5.40
2022-08-12T08:23:35.135Z,6.00
2022-08-12T08:24:31.541Z,4.40
2022-08-12T08:25:36.070Z,5.10
2022-08-12T08:26:32.560Z,4.50
2022-08-12T08:27:31.485Z,3.30
2022-08-12T08:28:31.465Z,3.80
2022-08-12T08:29:31.462Z,6.50
2022-08-12T08:30:31.450Z,5.10
2022-08-12T08:31:31.454Z,5.40
2022-08-12T08:32:31.489Z,4.10
2022-08-12T08:34:09.193Z,3.80
2022-08-12T08:34:53.865Z,6.20
2022-08-12T08:35:46.202Z,3.50
2022-08-12T08:36:32.602Z,11.50
2022-08-12T08:37:33.422Z,3.00
2022-08-12T08:38:35.366Z,8.00
2022-08-12T08:39:31.367Z,3.60
2022-08-12T08:40:31.337Z,3.00
2022-08-12T08:42:17.737Z,2.90
2022-08-12T08:42:32.424Z,4.40
2022-08-12T08:43:44.140Z,3.60
2022-08-12T08:44:32.294Z,3.90
2022-08-12T08:45:31.280Z,4.50
2022-08-12T08:46:31.292Z,2.50
2022-08-12T08:47:31.286Z,3.50
2022-08-12T08:48:31.268Z,3.80
2022-08-12T08:49:31.238Z,3.10
2022-08-12T08:50:31.231Z,2.40
2022-08-12T08:51:31.218Z,1.70
2022-08-12T08:52:40.424Z,3.90
2022-08-12T08:53:32.196Z,2.20
2022-08-12T08:54:31.189Z,3.00
2022-08-12T08:55:54.262Z,1.80
2022-08-12T08:56:32.167Z,2.40
2022-08-12T08:57:43.140Z,4.10
2022-08-12T08:58:32.170Z,2.90
2022-08-12T08:59:31.135Z,3.10
2022-08-12T09:00:31.130Z,2.20
2022-08-12T09:01:37.376Z,2.80
2022-08-12T09:02:32.211Z,2.20
2022-08-12T09:05:10.023Z,1.90
2022-08-12T09:05:13.566Z,3.30
2022-08-12T09:06:01.472Z,2.60
2022-08-12T09:06:37.763Z,3.60
2022-08-12T09:07:51.655Z,2.60
2022-08-12T09:08:32.057Z,5.50
2022-08-12T09:10:02.985Z,2.50
2022-08-12T09:10:32.663Z,2.70
2022-08-12T09:12:07.593Z,3.10
2022-08-12T09:12:32.018Z,4.50
2022-08-12T09:14:10.630Z,4.80
2022-08-12T09:14:31.971Z,2.40
2022-08-12T09:15:35.277Z,2.70
2022-08-12T09:16:30.954Z,2.10
2022-08-12T09:17:43.008Z,1.80
2022-08-12T09:18:33.258Z,1.70
2022-08-12T09:19:30.922Z,1.90
2022-08-12T09:20:30.914Z,2.10
2022-08-12T09:21:30.902Z,3.20
2022-08-12T09:22:31.891Z,4.80
2022-08-12T09:23:59.955Z,2.60
2022-08-12T09:24:32.012Z,3.60
2022-08-12T09:25:32.534Z,4.10
2022-08-12T09:26:30.878Z,2.00
2022-08-12T09:27:30.838Z,2.70
2022-08-12T09:28:31.925Z,4.20
2022-08-12T09:30:10.745Z,6.00
2022-08-12T09:30:42.243Z,4.00
2022-08-12T09:32:02.873Z,3.20
2022-08-12T09:33:04.242Z,1.70
2022-08-12T09:34:28.602Z,2.10
2022-08-12T09:34:33.296Z,1.60
2022-08-12T09:35:30.756Z,3.00
2022-08-12T09:36:58.364Z,2.40
2022-08-12T09:37:57.658Z,4.20
2022-08-12T09:38:32.091Z,3.20
2022-08-12T09:40:03.265Z,2.60
2022-08-12T09:40:57.611Z,2.30
2022-08-12T09:42:33.453Z,3.30
2022-08-12T09:42:41.174Z,3.70
2022-08-12T09:43:31.756Z,3.10
2022-08-12T09:44:39.476Z,2.20
2022-08-12T09:46:06.630Z,2.10
2022-08-12T09:46:31.665Z,6.50
2022-08-12T09:47:33.554Z,3.30
2022-08-12T09:48:35.004Z,4.10
2022-08-12T09:49:31.610Z,1.70
2022-08-12T09:50:30.618Z,3.30
2022-08-12T09:51:37.792Z,3.50
2022-08-12T09:52:31.937Z,3.70
2022-08-12T09:53:36.294Z,2.70
2022-08-12T09:54:34.719Z,2.60
2022-08-12T09:56:06.301Z,2.80
2022-08-12T09:57:01.631Z,1.70
2022-08-12T09:58:46.072Z,2.00
2022-08-12T09:58:57.008Z,2.10
2022-08-12T10:00:15.435Z,3.60
2022-08-12T10:00:43.183Z,3.20
2022-08-12T10:01:35.531Z,1.80
2022-08-12T10:02:44.156Z,2.00
2022-08-12T10:03:33.193Z,2.60
2022-08-12T10:04:30.533Z,4.50
2022-08-12T10:06:20.230Z,3.80
2022-08-12T10:06:35.918Z,3.50
2022-08-12T10:07:39.441Z,3.50
2022-08-12T10:08:31.414Z,3.90
2022-08-12T10:09:57.502Z,2.80
2022-08-12T10:10:31.386Z,2.00
2022-08-12T10:11:30.398Z,2.20
2022-08-12T10:13:06.763Z,1.80
2022-08-12T10:13:35.210Z,6.50
2022-08-12T10:14:34.267Z,3.10
2022-08-12T10:16:02.342Z,5.70
2022-08-12T10:16:36.798Z,2.40
2022-08-12T10:17:31.320Z,3.70
2022-08-12T10:18:30.311Z,2.90
2022-08-12T10:19:36.496Z,3.30
2022-08-12T10:20:31.283Z,4.40
2022-08-12T10:21:36.283Z,3.60
2022-08-12T10:22:38.802Z,2.50
2022-08-12T10:23:39.216Z,6.50
2022-08-12T10:24:31.249Z,3.10
2022-08-12T10:26:35.747Z,3.70
2022-08-12T10:26:36.911Z,2.90
2022-08-12T10:27:39.300Z,2.90
2022-08-12T10:28:31.205Z,3.40
2022-08-12T10:30:38.783Z,4.50
2022-08-12T10:30:40.260Z,3.40
2022-08-12T10:31:46.951Z,2.00
2022-08-12T10:32:44.038Z,3.30
2022-08-12T10:33:32.244Z,4.70
2022-08-12T10:34:30.141Z,3.40
2022-08-12T10:35:37.717Z,4.20
2022-08-12T10:36:36.141Z,3.90
2022-08-12T10:38:33.694Z,3.00
2022-08-12T10:38:37.478Z,2.80
2022-08-12T10:40:00.632Z,2.30
2022-08-12T10:40:33.142Z,2.30
2022-08-12T10:41:57.111Z,3.30
2022-08-12T10:42:31.058Z,2.00
2022-08-12T10:43:30.070Z,4.80
2022-08-12T10:44:31.087Z,2.40
2022-08-12T10:45:30.438Z,3.30
2022-08-12T10:46:30.471Z,3.80
2022-08-12T10:48:19.771Z,2.50
2022-08-12T10:48:33.886Z,3.90
2022-08-12T10:50:03.350Z,2.70
2022-08-12T10:50:56.358Z,4.00
2022-08-12T10:52:03.939Z,3.70
2022-08-12T10:52:33.827Z,3.30
2022-08-12T10:53:46.040Z,2.80
2022-08-12T10:54:30.935Z,3.80
2022-08-12T10:55:29.925Z,5.80
2022-08-12T10:56:34.866Z,7.00
2022-08-12T10:58:14.487Z,2.10
2022-08-12T10:58:31.957Z,7.30
2022-08-12T11:00:29.033Z,4.60
2022-08-12T11:00:35.728Z,2.90
2022-08-12T11:04:19.434Z,5.00
2022-08-12T11:04:22.743Z,9.70
2022-08-12T11:04:26.955Z,8.00
2022-08-12T11:04:39.628Z,5.40
2022-08-12T11:07:05.760Z,2.10
2022-08-12T11:07:06.193Z,3.00
2022-08-12T11:08:36.832Z,3.70
2022-08-12T11:08:37.229Z,3.50
2022-08-12T11:09:41.964Z,4.00
2022-08-12T11:10:30.882Z,2.60
2022-08-12T11:12:36.688Z,4.30
2022-08-12T11:12:55.067Z,4.00
2022-08-12T11:13:45.848Z,2.40
2022-08-12T11:14:49.489Z,2.80
2022-08-12T11:16:04.292Z,3.90
2022-08-12T11:16:30.729Z,5.00
2022-08-12T11:17:43.319Z,2.10
2022-08-12T11:18:30.685Z,3.70
2022-08-12T11:19:30.319Z,5.60
2022-08-12T11:20:31.223Z,5.60
2022-08-12T11:21:56.165Z,2.30
2022-08-12T11:22:34.370Z,4.00
2022-08-12T11:23:36.828Z,4.00
2022-08-12T11:24:32.312Z,2.30
2022-08-12T11:25:55.817Z,3.30
2022-08-12T11:26:30.621Z,3.20
2022-08-12T11:27:29.702Z,2.80
2022-08-12T11:28:33.995Z,1.70
2022-08-12T11:30:01.562Z,1.80
2022-08-12T11:30:32.105Z,3.00
2022-08-12T11:31:29.553Z,2.20
2022-08-12T11:32:30.561Z,2.80
2022-08-12T11:34:04.970Z,3.50
2022-08-12T11:34:52.685Z,5.30
2022-08-12T11:35:30.506Z,1.80
2022-08-12T11:36:29.469Z,2.60
2022-08-12T11:37:29.457Z,2.40
2022-08-12T11:38:30.468Z,1.60
2022-08-12T11:39:46.504Z,2.80
2022-08-12T11:40:30.428Z,1.60
2022-08-12T11:41:32.031Z,4.20
2022-08-12T11:42:32.581Z,2.00
2022-08-12T11:43:30.805Z,2.20
2022-08-12T11:44:37.186Z,3.00
2022-08-12T11:45:30.390Z,2.30
2022-08-12T11:46:30.534Z,1.80
2022-08-12T11:47:29.357Z,3.40
2022-08-12T11:48:50.891Z,2.80
2022-08-12T11:49:31.512Z,3.80
2022-08-12T11:50:32.272Z,2.80
2022-08-12T11:51:36.353Z,2.10
2022-08-12T11:52:55.130Z,3.10
2022-08-12T11:53:57.591Z,2.60
2022-08-12T11:54:30.658Z,2.00
2022-08-12T11:55:29.619Z,1.90
2022-08-12T11:56:38.276Z,1.90
2022-08-12T11:58:13.650Z,3.10
2022-08-12T11:59:34.775Z,2.10
2022-08-12T12:01:58.318Z,1.50
2022-08-12T12:02:30.274Z,1.60
2022-08-12T12:03:43.901Z,1.50
2022-08-12T12:04:30.210Z,1.30
2022-08-12T12:05:41.977Z,2.50
2022-08-12T12:06:30.167Z,2.50
2022-08-12T12:08:35.968Z,1.80
2022-08-12T12:08:37.369Z,1.20
2022-08-12T12:09:30.157Z,2.10
2022-08-12T12:10:30.125Z,2.80
2022-08-12T12:11:48.844Z,2.30
2022-08-12T12:12:30.105Z,1.60
2022-08-12T12:14:08.005Z,2.60
2022-08-12T12:14:38.127Z,1.10
2022-08-12T12:15:40.775Z,2.20
2022-08-12T12:16:30.071Z,1.30
2022-08-12T12:17:38.311Z,1.50
2022-08-12T12:18:30.999Z,1.80
2022-08-12T12:19:29.038Z,2.00
2022-08-12T12:20:30.476Z,1.90
2022-08-12T12:21:47.771Z,1.90
2022-08-12T12:22:30.963Z,2.70
2022-08-12T12:23:29.531Z,2.60
2022-08-12T12:24:28.984Z,3.80
2022-08-12T12:25:59.278Z,1.00
2022-08-12T12:26:34.853Z,1.40
2022-08-12T12:28:00.704Z,3.20
2022-08-12T12:28:37.235Z,2.00
2022-08-12T12:30:19.596Z,2.40
2022-08-12T12:30:30.446Z,2.30
2022-08-12T12:32:10.774Z,2.20
2022-08-12T12:32:31.021Z,1.80
2022-08-12T12:33:57.264Z,2.60
2022-08-12T12:34:30.688Z,1.10
2022-08-12T12:36:17.102Z,1.30
2022-08-12T12:36:30.896Z,1.30
2022-08-12T12:38:04.590Z,1.80
2022-08-12T12:38:29.852Z,2.80
2022-08-12T12:39:28.900Z,2.60
2022-08-12T12:40:29.996Z,2.60
2022-08-12T12:42:42.498Z,2.10
2022-08-12T12:42:42.817Z,2.30
2022-08-12T12:43:43.303Z,3.30
2022-08-12T12:44:38.883Z,3.30
2022-08-12T12:45:32.323Z,2.70
2022-08-12T12:46:28.782Z,1.50
2022-08-12T12:47:30.160Z,2.20
2022-08-12T12:48:28.740Z,3.10
2022-08-12T12:49:28.732Z,1.40
2022-08-12T12:50:35.264Z,7.90
2022-08-12T12:51:48.657Z,1.30
2022-08-12T12:52:29.960Z,1.70
2022-08-12T12:54:07.872Z,2.30
2022-08-12T12:54:29.676Z,4.60
2022-08-12T12:55:35.464Z,1.30
2022-08-12T12:56:34.680Z,3.40
2022-08-12T12:57:36.371Z,1.60
2022-08-12T12:58:29.640Z,1.30
2022-08-12T12:59:56.151Z,3.10
2022-08-12T13:00:29.636Z,2.30
2022-08-12T13:01:30.900Z,1.50
2022-08-12T13:02:31.631Z,1.70
2022-08-12T13:03:28.586Z,1.50
2022-08-12T13:04:29.576Z,2.00
2022-08-12T13:05:29.564Z,1.40
2022-08-12T13:06:30.160Z,2.30
2022-08-12T13:07:49.446Z,2.80
2022-08-12T13:08:35.948Z,4.10
2022-08-12T13:09:29.522Z,2.00
2022-08-12T13:10:30.627Z,1.50
2022-08-12T13:11:40.689Z,3.30
2022-08-12T13:12:29.617Z,1.10
2022-08-12T13:14:06.851Z,1.70
2022-08-12T13:14:31.309Z,2.60
2022-08-12T13:15:45.421Z,3.40
2022-08-12T13:16:29.473Z,3.10
2022-08-12T13:17:28.439Z,4.50
2022-08-12T13:18:29.425Z,2.60
2022-08-12T13:19:37.771Z,2.20